Jsp Amihan — V2GX7 — position and weather

sailwx.info

Track history (hours):
 
Tides and Currents Weather Stations Pressure Air Temp Water Temp Dewpoint Dewpoint Depression Visibility Wind Speed Wind Dir Waves Ship Positions

Jsp Amihan

Last reported at 2017-Nov-23 04:18 UTC. Time now 2017-Nov-23 05:44 UTC.
Position N 25°58' W 079°39'.

Length 139 m; draft 6.9 m.

Type: Ship. MMSI: 305007000.

Date/timePositionNaut miles runAvg speedWind from/ knotsBaromVisibWave heightAir tempDewpointWater temp
2017-Nov-23 04:18N 25°58' W 079°39'413.8
2017-Nov-23 04:00N 25°56' W 079°44'713.8
2017-Nov-23 03:30N 25°54' W 079°51'714.8
2017-Nov-23 03:00N 25°50' W 079°58'714.5
2017-Nov-23 02:30N 25°46' W 080°05'4 9.0
2017-Nov-23 02:00N 25°46' W 080°10'0 0.3
2017-Nov-23 01:30N 25°46' W 080°10'0 0.1
2017-Nov-23 01:00N 25°46' W 080°10'0 0.0
2017-Nov-23 00:30N 25°46' W 080°10'0 0.1
2017-Nov-23 00:01N 25°46' W 080°10'0 0.0
2017-Nov-22 23:30N 25°46' W 080°10'0 0.0
2017-Nov-22 23:00N 25°46' W 080°10'0 0.0
2017-Nov-22 22:30N 25°46' W 080°10'0 0.0
2017-Nov-22 22:00N 25°46' W 080°10'0 0.0
2017-Nov-22 21:30N 25°46' W 080°10'0 0.0
2017-Nov-22 21:00N 25°46' W 080°10'0 0.7
2017-Nov-22 20:31N 25°46' W 080°09'5 9.3
2017-Nov-22 20:00N 25°47' W 080°04'3 6.2
2017-Nov-22 19:30N 25°49' W 080°02'  
2017-Nov-16 08:12N 25°59' W 079°40'313.2
2017-Nov-16 07:59N 25°58' W 079°43'713.5
2017-Nov-16 07:30N 25°54' W 079°49'612.8
2017-Nov-16 07:00N 25°51' W 079°55'612.3
2017-Nov-16 06:30N 25°48' W 080°01'510.5
2017-Nov-16 06:01N 25°46' W 080°06'4 7.3
2017-Nov-16 05:31N 25°46' W 080°10'0 0.7
2017-Nov-16 04:58N 25°46' W 080°10'0 0.0
2017-Nov-16 04:25N 25°46' W 080°10'0 0.0
2017-Nov-16 03:58N 25°46' W 080°10'0 0.0
2017-Nov-16 03:28N 25°46' W 080°10'0 0.0
2017-Nov-16 02:58N 25°46' W 080°10'0 0.0
2017-Nov-16 02:28N 25°46' W 080°10'0 0.0
2017-Nov-16 01:58N 25°46' W 080°10'0 0.0
2017-Nov-16 01:28N 25°46' W 080°10'0 0.0
2017-Nov-16 00:58N 25°46' W 080°10'0 0.0
2017-Nov-16 00:28N 25°46' W 080°10'0 0.0
2017-Nov-15 23:58N 25°46' W 080°10'0 0.0
2017-Nov-15 23:28N 25°46' W 080°10'0 0.0
2017-Nov-15 22:58N 25°46' W 080°10'0 0.0
2017-Nov-15 22:28N 25°46' W 080°10'0 0.0
2017-Nov-15 21:58N 25°46' W 080°10'0 0.0
2017-Nov-15 21:28N 25°46' W 080°10'0 0.0
2017-Nov-15 21:00N 25°46' W 080°10'1 2.5
2017-Nov-15 20:30N 25°46' W 080°08'510.0
2017-Nov-15 20:00N 25°47' W 080°03'1 2.0
2017-Nov-15 19:30N 25°48' W 080°02'612.2
2017-Nov-15 19:00N 25°51' W 079°56'612.2
2017-Nov-15 18:30N 25°54' W 079°50'612.3
2017-Nov-15 18:00N 25°57' W 079°44'18 0.5
2017-Nov-14 08:34N 26°11' W 079°32'113.6
2017-Nov-14 08:27N 26°10' W 079°33'613.5
2017-Nov-14 08:01N 26°08' W 079°39'713.1
2017-Nov-14 07:30N 26°07' W 079°47'612.8
2017-Nov-14 07:00N 26°07' W 079°54'613.1
2017-Nov-14 06:30N 26°06' W 080°01'510.3
2017-Nov-14 06:00N 26°06' W 080°07'1 2.9
2017-Nov-14 05:30N 26°04' W 080°07'0 0.0
2017-Nov-14 04:58N 26°04' W 080°07'0 0.0
2017-Nov-14 04:25N 26°04' W 080°07'0 0.0
2017-Nov-14 03:58N 26°04' W 080°07'0 0.0
2017-Nov-14 03:28N 26°04' W 080°07'0 0.0
2017-Nov-14 02:55N 26°04' W 080°07'0 0.0
2017-Nov-14 02:25N 26°04' W 080°07'0 0.0
2017-Nov-14 01:58N 26°04' W 080°07'0 0.0
2017-Nov-14 01:28N 26°04' W 080°07'0 0.0
2017-Nov-14 00:58N 26°04' W 080°07'0 0.0
2017-Nov-14 00:27N 26°04' W 080°07'0 0.0
2017-Nov-14 00:00N 26°04' W 080°07'1 2.5
2017-Nov-13 23:30N 26°05' W 080°07'3 6.2
2017-Nov-13 23:00N 26°06' W 080°04'2 3.5
2017-Nov-13 22:29N 26°07' W 080°02'5 9.7
2017-Nov-13 22:00N 26°08' W 079°57'  
Track history (hours):
 
Tides and Currents Weather Stations Pressure Air Temp Water Temp Dewpoint Dewpoint Depression Visibility Wind Speed Wind Dir Waves Ship Positions

Jsp Amihan

Last reported at 2017-Nov-23 04:18 UTC. Time now 2017-Nov-23 05:44 UTC.
Position N 25°58' W 079°39'.

Length 139 m; draft 6.9 m.

Type: Ship. MMSI: 305007000.

Date/timePositionNaut miles runAvg speedWind from/ knotsBaromVisibWave heightAir tempDewpointWater temp
2017-Nov-23 04:18N 25°58' W 079°39'413.8
2017-Nov-23 04:00N 25°56' W 079°44'713.8
2017-Nov-23 03:30N 25°54' W 079°51'714.8
2017-Nov-23 03:00N 25°50' W 079°58'714.5
2017-Nov-23 02:30N 25°46' W 080°05'4 9.0
2017-Nov-23 02:00N 25°46' W 080°10'0 0.3
2017-Nov-23 01:30N 25°46' W 080°10'0 0.1
2017-Nov-23 01:00N 25°46' W 080°10'0 0.0
2017-Nov-23 00:30N 25°46' W 080°10'0 0.1
2017-Nov-23 00:01N 25°46' W 080°10'0 0.0
2017-Nov-22 23:30N 25°46' W 080°10'0 0.0
2017-Nov-22 23:00N 25°46' W 080°10'0 0.0
2017-Nov-22 22:30N 25°46' W 080°10'0 0.0
2017-Nov-22 22:00N 25°46' W 080°10'0 0.0
2017-Nov-22 21:30N 25°46' W 080°10'0 0.0
2017-Nov-22 21:00N 25°46' W 080°10'0 0.7
2017-Nov-22 20:31N 25°46' W 080°09'5 9.3
2017-Nov-22 20:00N 25°47' W 080°04'3 6.2
2017-Nov-22 19:30N 25°49' W 080°02'  
2017-Nov-16 08:12N 25°59' W 079°40'313.2
2017-Nov-16 07:59N 25°58' W 079°43'713.5
2017-Nov-16 07:30N 25°54' W 079°49'612.8
2017-Nov-16 07:00N 25°51' W 079°55'612.3
2017-Nov-16 06:30N 25°48' W 080°01'510.5
2017-Nov-16 06:01N 25°46' W 080°06'4 7.3
2017-Nov-16 05:31N 25°46' W 080°10'0 0.7
2017-Nov-16 04:58N 25°46' W 080°10'0 0.0
2017-Nov-16 04:25N 25°46' W 080°10'0 0.0
2017-Nov-16 03:58N 25°46' W 080°10'0 0.0
2017-Nov-16 03:28N 25°46' W 080°10'0 0.0
2017-Nov-16 02:58N 25°46' W 080°10'0 0.0
2017-Nov-16 02:28N 25°46' W 080°10'0 0.0
2017-Nov-16 01:58N 25°46' W 080°10'0 0.0
2017-Nov-16 01:28N 25°46' W 080°10'0 0.0
2017-Nov-16 00:58N 25°46' W 080°10'0 0.0
2017-Nov-16 00:28N 25°46' W 080°10'0 0.0
2017-Nov-15 23:58N 25°46' W 080°10'0 0.0
2017-Nov-15 23:28N 25°46' W 080°10'0 0.0
2017-Nov-15 22:58N 25°46' W 080°10'0 0.0
2017-Nov-15 22:28N 25°46' W 080°10'0 0.0
2017-Nov-15 21:58N 25°46' W 080°10'0 0.0
2017-Nov-15 21:28N 25°46' W 080°10'0 0.0
2017-Nov-15 21:00N 25°46' W 080°10'1 2.5
2017-Nov-15 20:30N 25°46' W 080°08'510.0
2017-Nov-15 20:00N 25°47' W 080°03'1 2.0
2017-Nov-15 19:30N 25°48' W 080°02'612.2
2017-Nov-15 19:00N 25°51' W 079°56'612.2
2017-Nov-15 18:30N 25°54' W 079°50'612.3
2017-Nov-15 18:00N 25°57' W 079°44'18 0.5
2017-Nov-14 08:34N 26°11' W 079°32'113.6
2017-Nov-14 08:27N 26°10' W 079°33'613.5
2017-Nov-14 08:01N 26°08' W 079°39'713.1
2017-Nov-14 07:30N 26°07' W 079°47'612.8
2017-Nov-14 07:00N 26°07' W 079°54'613.1
2017-Nov-14 06:30N 26°06' W 080°01'510.3
2017-Nov-14 06:00N 26°06' W 080°07'1 2.9
2017-Nov-14 05:30N 26°04' W 080°07'0 0.0
2017-Nov-14 04:58N 26°04' W 080°07'0 0.0
2017-Nov-14 04:25N 26°04' W 080°07'0 0.0
2017-Nov-14 03:58N 26°04' W 080°07'0 0.0
2017-Nov-14 03:28N 26°04' W 080°07'0 0.0
2017-Nov-14 02:55N 26°04' W 080°07'0 0.0
2017-Nov-14 02:25N 26°04' W 080°07'0 0.0
2017-Nov-14 01:58N 26°04' W 080°07'0 0.0
2017-Nov-14 01:28N 26°04' W 080°07'0 0.0
2017-Nov-14 00:58N 26°04' W 080°07'0 0.0
2017-Nov-14 00:27N 26°04' W 080°07'0 0.0
2017-Nov-14 00:00N 26°04' W 080°07'1 2.5
2017-Nov-13 23:30N 26°05' W 080°07'3 6.2
2017-Nov-13 23:00N 26°06' W 080°04'2 3.5
2017-Nov-13 22:29N 26°07' W 080°02'5 9.7
2017-Nov-13 22:00N 26°08' W 079°57'  

Dump ship's entire track history